This is the latest recevied weather packets stored in our database for station/object NY3Q. If no packets are shown the sender has not sent any weather packets the latest 10 day(s).
| Time | Temp. | Humidity | Pressure | Rain* | Wind** | Luminosity | Snow |
|---|---|---|---|---|---|---|---|
| 1777761707 | 19.44° C | 86% | 1010.5 hPa | 0 mm | - | 18 W/m² | - |
| 1777761405 | 20° C | 85% | 1010.4 hPa | 0 mm | - | 18 W/m² | - |
| 1777761103 | 20.56° C | 83% | 1010.2 hPa | 0 mm | - | 16 W/m² | - |
| 1777760800 | 21.11° C | 83% | 1009.9 hPa | 0 mm | - | 15 W/m² | - |
| 1777760497 | 21.11° C | 83% | 1010 hPa | 0 mm | - | 53 W/m² | - |
| 1777760192 | 21.67° C | 82% | 1009.8 hPa | 0 mm | - | 63 W/m² | - |
| 1777759889 | 21.67° C | 82% | 1009.6 hPa | 0 mm | - | 92 W/m² | - |
| 1777759586 | 21.67° C | 84% | 1009.6 hPa | 0 mm | - | 123 W/m² | - |
| 1777759282 | 21.67° C | 84% | 1009.6 hPa | 0 mm | - | 143 W/m² | - |
| 1777758373 | 21.11° C | 85% | 1009.7 hPa | 0 mm | - | 160 W/m² | - |
| 1777757768 | 21.67° C | 86% | 1009.3 hPa | 0 mm | - | 129 W/m² | - |
| 1777757465 | 21.11° C | 86% | 1009.4 hPa | 0 mm | - | 161 W/m² | - |
| 1777757164 | 21.11° C | 87% | 1009.1 hPa | 0 mm | - | 153 W/m² | - |
| 1777756861 | 21.11° C | 86% | 1009.3 hPa | 0 mm | - | 149 W/m² | - |
| 1777756556 | 21.11° C | 87% | 1009.2 hPa | 0 mm | - | 140 W/m² | - |
| 1777756254 | 21.11° C | 87% | 1009.2 hPa | 0 mm | - | 141 W/m² | - |
| 1777755951 | 21.11° C | 88% | 1009.5 hPa | 0 mm | - | 173 W/m² | - |
| 1777755648 | 21.11° C | 88% | 1009.4 hPa | 0 mm | - | 107 W/m² | - |
| 1777755344 | 21.11° C | 89% | 1009.1 hPa | 0 mm | - | 125 W/m² | - |
| 1777755042 | 21.11° C | 90% | 1009.2 hPa | 0 mm | - | 135 W/m² | - |
| 1777754133 | 20.56° C | 93% | 1009.4 hPa | 0 mm | - | 266 W/m² | - |
| 1777753830 | 20° C | 93% | 1009.6 hPa | 0 mm | - | 166 W/m² | - |
| 1777753526 | 20° C | 93% | 1009.6 hPa | 0 mm | - | 173 W/m² | - |
| 1777753225 | 20° C | 93% | 1009.7 hPa | 0 mm | - | 159 W/m² | - |
| 1777752920 | 20° C | 93% | 1009.8 hPa | 0 mm | - | 102 W/m² | - |
* Rain latest hour (hover to see other rain measurements)
** Current wind speed in m/s (hover to see current wind gust speed)